sensor_id;sensor_type;location;lat;lon;timestamp;P1;durP1;ratioP1;P2;durP2;ratioP2
22774;SDS011;11554;51.106;3.684;2023-11-21T00:00:01;24.90;;;15.50;;
22774;SDS011;11554;51.106;3.684;2023-11-21T00:05:00;24.90;;;15.50;;
22774;SDS011;11554;51.106;3.684;2023-11-21T00:10:00;25.20;;;15.80;;
22774;SDS011;11554;51.106;3.684;2023-11-21T00:15:01;25.20;;;15.80;;
22774;SDS011;11554;51.106;3.684;2023-11-21T00:20:00;22.80;;;14.70;;
22774;SDS011;11554;51.106;3.684;2023-11-21T00:25:00;22.80;;;14.70;;
22774;SDS011;11554;51.106;3.684;2023-11-21T00:30:00;23.20;;;14.80;;
22774;SDS011;11554;51.106;3.684;2023-11-21T00:35:00;23.20;;;14.80;;
22774;SDS011;11554;51.106;3.684;2023-11-21T00:40:00;25.60;;;14.50;;
22774;SDS011;11554;51.106;3.684;2023-11-21T00:45:00;25.60;;;14.50;;
22774;SDS011;11554;51.106;3.684;2023-11-21T00:50:00;28.70;;;14.60;;
22774;SDS011;11554;51.106;3.684;2023-11-21T00:55:00;28.70;;;14.60;;
22774;SDS011;11554;51.106;3.684;2023-11-21T01:00:00;25.30;;;15.00;;
22774;SDS011;11554;51.106;3.684;2023-11-21T01:05:00;25.30;;;15.00;;
22774;SDS011;11554;51.106;3.684;2023-11-21T01:10:00;21.70;;;13.70;;
22774;SDS011;11554;51.106;3.684;2023-11-21T01:15:00;21.70;;;13.70;;
22774;SDS011;11554;51.106;3.684;2023-11-21T01:20:00;25.30;;;14.70;;
22774;SDS011;11554;51.106;3.684;2023-11-21T01:25:00;25.30;;;14.70;;
22774;SDS011;11554;51.106;3.684;2023-11-21T01:30:01;23.10;;;12.90;;
22774;SDS011;11554;51.106;3.684;2023-11-21T01:35:00;23.10;;;12.90;;
22774;SDS011;11554;51.106;3.684;2023-11-21T01:40:00;22.20;;;13.70;;
22774;SDS011;11554;51.106;3.684;2023-11-21T01:45:00;22.20;;;13.70;;
22774;SDS011;11554;51.106;3.684;2023-11-21T01:50:00;20.80;;;13.10;;
22774;SDS011;11554;51.106;3.684;2023-11-21T01:55:01;20.80;;;13.10;;
22774;SDS011;11554;51.106;3.684;2023-11-21T02:00:02;19.20;;;12.30;;
22774;SDS011;11554;51.106;3.684;2023-11-21T02:05:00;19.20;;;12.30;;
22774;SDS011;11554;51.106;3.684;2023-11-21T02:10:00;21.70;;;12.90;;
22774;SDS011;11554;51.106;3.684;2023-11-21T02:15:00;21.70;;;12.90;;
22774;SDS011;11554;51.106;3.684;2023-11-21T02:20:00;20.90;;;13.00;;
22774;SDS011;11554;51.106;3.684;2023-11-21T02:25:00;20.90;;;13.00;;
22774;SDS011;11554;51.106;3.684;2023-11-21T02:30:00;24.30;;;12.80;;
22774;SDS011;11554;51.106;3.684;2023-11-21T02:35:00;24.30;;;12.80;;
22774;SDS011;11554;51.106;3.684;2023-11-21T02:40:00;23.40;;;13.10;;
22774;SDS011;11554;51.106;3.684;2023-11-21T02:45:00;23.40;;;13.10;;
22774;SDS011;11554;51.106;3.684;2023-11-21T02:50:00;22.50;;;13.40;;
22774;SDS011;11554;51.106;3.684;2023-11-21T02:55:00;22.50;;;13.40;;
22774;SDS011;11554;51.106;3.684;2023-11-21T03:00:00;20.90;;;13.00;;
22774;SDS011;11554;51.106;3.684;2023-11-21T03:05:00;20.90;;;13.00;;
22774;SDS011;11554;51.106;3.684;2023-11-21T03:10:00;31.70;;;13.40;;
22774;SDS011;11554;51.106;3.684;2023-11-21T03:15:00;31.70;;;13.40;;
22774;SDS011;11554;51.106;3.684;2023-11-21T03:20:00;24.70;;;13.20;;
22774;SDS011;11554;51.106;3.684;2023-11-21T03:25:00;24.70;;;13.20;;
22774;SDS011;11554;51.106;3.684;2023-11-21T03:30:00;22.20;;;12.40;;
22774;SDS011;11554;51.106;3.684;2023-11-21T03:35:00;22.20;;;12.40;;
22774;SDS011;11554;51.106;3.684;2023-11-21T03:40:00;26.40;;;12.60;;
22774;SDS011;11554;51.106;3.684;2023-11-21T03:45:00;26.40;;;12.60;;
22774;SDS011;11554;51.106;3.684;2023-11-21T03:50:00;22.90;;;13.80;;
22774;SDS011;11554;51.106;3.684;2023-11-21T03:55:00;22.90;;;13.80;;
22774;SDS011;11554;51.106;3.684;2023-11-21T04:00:00;29.00;;;13.70;;
22774;SDS011;11554;51.106;3.684;2023-11-21T04:05:00;29.00;;;13.70;;
22774;SDS011;11554;51.106;3.684;2023-11-21T04:10:00;24.80;;;14.20;;
22774;SDS011;11554;51.106;3.684;2023-11-21T04:15:00;24.80;;;14.20;;
22774;SDS011;11554;51.106;3.684;2023-11-21T04:20:00;26.40;;;14.50;;
22774;SDS011;11554;51.106;3.684;2023-11-21T04:25:00;26.40;;;14.50;;
22774;SDS011;11554;51.106;3.684;2023-11-21T04:30:00;23.50;;;13.60;;
22774;SDS011;11554;51.106;3.684;2023-11-21T04:35:00;23.50;;;13.60;;
22774;SDS011;11554;51.106;3.684;2023-11-21T04:40:00;27.70;;;13.80;;
22774;SDS011;11554;51.106;3.684;2023-11-21T04:45:00;27.70;;;13.80;;
22774;SDS011;11554;51.106;3.684;2023-11-21T04:50:01;26.40;;;14.20;;
22774;SDS011;11554;51.106;3.684;2023-11-21T04:55:01;26.40;;;14.20;;
22774;SDS011;11554;51.106;3.684;2023-11-21T05:00:00;24.70;;;14.30;;
22774;SDS011;11554;51.106;3.684;2023-11-21T05:05:00;24.70;;;14.30;;
22774;SDS011;11554;51.106;3.684;2023-11-21T05:10:00;27.60;;;15.20;;
22774;SDS011;11554;51.106;3.684;2023-11-21T05:15:00;27.60;;;15.20;;
22774;SDS011;11554;51.106;3.684;2023-11-21T05:20:00;31.60;;;18.80;;
22774;SDS011;11554;51.106;3.684;2023-11-21T05:25:00;31.60;;;18.80;;
22774;SDS011;11554;51.106;3.684;2023-11-21T05:30:01;31.50;;;18.80;;
22774;SDS011;11554;51.106;3.684;2023-11-21T05:35:00;31.50;;;18.80;;
22774;SDS011;11554;51.106;3.684;2023-11-21T05:40:00;29.10;;;17.50;;
22774;SDS011;11554;51.106;3.684;2023-11-21T05:45:01;29.10;;;17.50;;
22774;SDS011;11554;51.106;3.684;2023-11-21T05:50:00;30.00;;;16.00;;
22774;SDS011;11554;51.106;3.684;2023-11-21T05:55:00;30.00;;;16.00;;
22774;SDS011;11554;51.106;3.684;2023-11-21T06:00:00;29.40;;;17.40;;
22774;SDS011;11554;51.106;3.684;2023-11-21T06:05:00;29.40;;;17.40;;
22774;SDS011;11554;51.106;3.684;2023-11-21T06:10:00;32.10;;;16.40;;
22774;SDS011;11554;51.106;3.684;2023-11-21T06:15:00;32.10;;;16.40;;
22774;SDS011;11554;51.106;3.684;2023-11-21T06:20:00;47.90;;;17.50;;
22774;SDS011;11554;51.106;3.684;2023-11-21T06:25:00;47.90;;;17.50;;
22774;SDS011;11554;51.106;3.684;2023-11-21T06:30:00;40.40;;;17.90;;
22774;SDS011;11554;51.106;3.684;2023-11-21T06:35:00;40.40;;;17.90;;
22774;SDS011;11554;51.106;3.684;2023-11-21T06:40:01;36.30;;;16.40;;
22774;SDS011;11554;51.106;3.684;2023-11-21T06:45:00;36.30;;;16.40;;
22774;SDS011;11554;51.106;3.684;2023-11-21T06:50:00;54.70;;;16.00;;
22774;SDS011;11554;51.106;3.684;2023-11-21T06:55:00;54.70;;;16.00;;
22774;SDS011;11554;51.106;3.684;2023-11-21T07:00:00;45.10;;;18.40;;
22774;SDS011;11554;51.106;3.684;2023-11-21T07:05:00;45.10;;;18.40;;
22774;SDS011;11554;51.106;3.684;2023-11-21T07:10:00;40.90;;;15.40;;
22774;SDS011;11554;51.106;3.684;2023-11-21T07:15:00;40.90;;;15.40;;
22774;SDS011;11554;51.106;3.684;2023-11-21T07:20:00;21.90;;;12.20;;
22774;SDS011;11554;51.106;3.684;2023-11-21T07:25:00;21.90;;;12.20;;
22774;SDS011;11554;51.106;3.684;2023-11-21T07:30:00;22.60;;;12.20;;
22774;SDS011;11554;51.106;3.684;2023-11-21T07:35:00;22.60;;;12.20;;
22774;SDS011;11554;51.106;3.684;2023-11-21T07:40:00;20.70;;;12.50;;
22774;SDS011;11554;51.106;3.684;2023-11-21T07:45:00;20.70;;;12.50;;
22774;SDS011;11554;51.106;3.684;2023-11-21T07:50:00;20.30;;;12.10;;
22774;SDS011;11554;51.106;3.684;2023-11-21T07:55:00;20.30;;;12.10;;
22774;SDS011;11554;51.106;3.684;2023-11-21T08:00:00;21.40;;;12.50;;
22774;SDS011;11554;51.106;3.684;2023-11-21T08:05:00;21.40;;;12.50;;
22774;SDS011;11554;51.106;3.684;2023-11-21T08:10:00;17.90;;;11.20;;
22774;SDS011;11554;51.106;3.684;2023-11-21T08:15:00;17.90;;;11.20;;
22774;SDS011;11554;51.106;3.684;2023-11-21T08:20:00;17.30;;;11.10;;
22774;SDS011;11554;51.106;3.684;2023-11-21T08:25:00;17.30;;;11.10;;
22774;SDS011;11554;51.106;3.684;2023-11-21T08:30:00;20.70;;;12.30;;
22774;SDS011;11554;51.106;3.684;2023-11-21T08:35:00;20.70;;;12.30;;
22774;SDS011;11554;51.106;3.684;2023-11-21T08:40:00;20.00;;;11.90;;
22774;SDS011;11554;51.106;3.684;2023-11-21T08:45:00;20.00;;;11.90;;
22774;SDS011;11554;51.106;3.684;2023-11-21T08:50:00;18.10;;;11.10;;
22774;SDS011;11554;51.106;3.684;2023-11-21T08:55:00;18.10;;;11.10;;
22774;SDS011;11554;51.106;3.684;2023-11-21T09:00:00;19.00;;;11.00;;
22774;SDS011;11554;51.106;3.684;2023-11-21T09:05:00;19.00;;;11.00;;
22774;SDS011;11554;51.106;3.684;2023-11-21T09:10:00;15.80;;;10.00;;
22774;SDS011;11554;51.106;3.684;2023-11-21T09:15:00;15.80;;;10.00;;
22774;SDS011;11554;51.106;3.684;2023-11-21T09:20:00;13.50;;;7.20;;
22774;SDS011;11554;51.106;3.684;2023-11-21T09:25:00;13.50;;;7.20;;
22774;SDS011;11554;51.106;3.684;2023-11-21T09:30:00;12.30;;;6.50;;
22774;SDS011;11554;51.106;3.684;2023-11-21T09:35:00;12.30;;;6.50;;
22774;SDS011;11554;51.106;3.684;2023-11-21T09:40:00;15.10;;;7.40;;
22774;SDS011;11554;51.106;3.684;2023-11-21T09:45:03;15.10;;;7.40;;
22774;SDS011;11554;51.106;3.684;2023-11-21T09:50:01;16.20;;;9.10;;
22774;SDS011;11554;51.106;3.684;2023-11-21T09:55:01;16.20;;;9.10;;
22774;SDS011;11554;51.106;3.684;2023-11-21T10:00:01;15.30;;;7.10;;
22774;SDS011;11554;51.106;3.684;2023-11-21T10:05:02;15.30;;;7.10;;
22774;SDS011;11554;51.106;3.684;2023-11-21T10:10:01;14.60;;;7.70;;
22774;SDS011;11554;51.106;3.684;2023-11-21T10:15:02;14.60;;;7.70;;
22774;SDS011;11554;51.106;3.684;2023-11-21T10:20:00;17.40;;;7.80;;
22774;SDS011;11554;51.106;3.684;2023-11-21T10:25:00;17.40;;;7.80;;
22774;SDS011;11554;51.106;3.684;2023-11-21T10:30:00;18.60;;;8.50;;
22774;SDS011;11554;51.106;3.684;2023-11-21T10:35:00;18.60;;;8.50;;
22774;SDS011;11554;51.106;3.684;2023-11-21T10:40:01;22.30;;;8.90;;
22774;SDS011;11554;51.106;3.684;2023-11-21T10:45:00;22.30;;;8.90;;
22774;SDS011;11554;51.106;3.684;2023-11-21T10:50:00;13.70;;;5.80;;
22774;SDS011;11554;51.106;3.684;2023-11-21T10:55:00;13.70;;;5.80;;
22774;SDS011;11554;51.106;3.684;2023-11-21T11:00:00;14.10;;;4.60;;
22774;SDS011;11554;51.106;3.684;2023-11-21T11:05:01;14.10;;;4.60;;
22774;SDS011;11554;51.106;3.684;2023-11-21T11:10:00;13.70;;;3.60;;
22774;SDS011;11554;51.106;3.684;2023-11-21T11:15:01;13.70;;;3.60;;
22774;SDS011;11554;51.106;3.684;2023-11-21T11:20:01;13.30;;;3.30;;
22774;SDS011;11554;51.106;3.684;2023-11-21T11:25:14;13.30;;;3.30;;
22774;SDS011;11554;51.106;3.684;2023-11-21T11:30:10;12.60;;;3.20;;
22774;SDS011;11554;51.106;3.684;2023-11-21T11:35:05;12.60;;;3.20;;
22774;SDS011;11554;51.106;3.684;2023-11-21T11:40:00;7.80;;;2.00;;
22774;SDS011;11554;51.106;3.684;2023-11-21T11:45:00;7.80;;;2.00;;
22774;SDS011;11554;51.106;3.684;2023-11-21T11:50:02;10.50;;;2.40;;
22774;SDS011;11554;51.106;3.684;2023-11-21T11:55:00;10.50;;;2.40;;
22774;SDS011;11554;51.106;3.684;2023-11-21T12:00:10;9.30;;;2.30;;
22774;SDS011;11554;51.106;3.684;2023-11-21T12:05:00;9.30;;;2.30;;
22774;SDS011;11554;51.106;3.684;2023-11-21T12:10:01;8.60;;;2.00;;
22774;SDS011;11554;51.106;3.684;2023-11-21T12:15:00;8.60;;;2.00;;
22774;SDS011;11554;51.106;3.684;2023-11-21T12:20:01;9.30;;;2.00;;
22774;SDS011;11554;51.106;3.684;2023-11-21T12:25:00;9.30;;;2.00;;
22774;SDS011;11554;51.106;3.684;2023-11-21T12:30:00;7.00;;;1.80;;
22774;SDS011;11554;51.106;3.684;2023-11-21T12:35:00;7.00;;;1.80;;
22774;SDS011;11554;51.106;3.684;2023-11-21T12:40:00;7.10;;;2.20;;
22774;SDS011;11554;51.106;3.684;2023-11-21T12:45:18;7.10;;;2.20;;
22774;SDS011;11554;51.106;3.684;2023-11-21T12:50:02;7.70;;;2.10;;
22774;SDS011;11554;51.106;3.684;2023-11-21T12:55:00;7.70;;;2.10;;
22774;SDS011;11554;51.106;3.684;2023-11-21T13:00:00;6.40;;;1.90;;
22774;SDS011;11554;51.106;3.684;2023-11-21T13:05:00;6.40;;;1.90;;
22774;SDS011;11554;51.106;3.684;2023-11-21T13:10:00;4.50;;;2.10;;
22774;SDS011;11554;51.106;3.684;2023-11-21T13:15:03;4.50;;;2.10;;
22774;SDS011;11554;51.106;3.684;2023-11-21T13:20:00;3.70;;;2.00;;
22774;SDS011;11554;51.106;3.684;2023-11-21T13:25:00;3.70;;;2.00;;
22774;SDS011;11554;51.106;3.684;2023-11-21T13:30:00;5.10;;;2.30;;
22774;SDS011;11554;51.106;3.684;2023-11-21T13:35:00;5.10;;;2.30;;
22774;SDS011;11554;51.106;3.684;2023-11-21T13:40:00;5.10;;;1.90;;
22774;SDS011;11554;51.106;3.684;2023-11-21T13:45:00;5.10;;;1.90;;
22774;SDS011;11554;51.106;3.684;2023-11-21T13:50:00;3.00;;;1.80;;
22774;SDS011;11554;51.106;3.684;2023-11-21T13:55:00;3.00;;;1.80;;
22774;SDS011;11554;51.106;3.684;2023-11-21T14:00:00;4.20;;;2.20;;
22774;SDS011;11554;51.106;3.684;2023-11-21T14:05:00;4.20;;;2.20;;
22774;SDS011;11554;51.106;3.684;2023-11-21T14:10:01;4.90;;;2.30;;
22774;SDS011;11554;51.106;3.684;2023-11-21T14:15:00;4.90;;;2.30;;
22774;SDS011;11554;51.106;3.684;2023-11-21T14:20:00;3.80;;;2.10;;
22774;SDS011;11554;51.106;3.684;2023-11-21T14:25:00;3.80;;;2.10;;
22774;SDS011;11554;51.106;3.684;2023-11-21T14:30:00;3.70;;;3.00;;
22774;SDS011;11554;51.106;3.684;2023-11-21T14:35:00;3.70;;;3.00;;
22774;SDS011;11554;51.106;3.684;2023-11-21T14:40:00;6.50;;;4.00;;
22774;SDS011;11554;51.106;3.684;2023-11-21T14:45:00;6.50;;;4.00;;
22774;SDS011;11554;51.106;3.684;2023-11-21T14:50:00;4.00;;;3.20;;
22774;SDS011;11554;51.106;3.684;2023-11-21T14:55:00;4.00;;;3.20;;
22774;SDS011;11554;51.106;3.684;2023-11-21T15:00:00;4.30;;;2.70;;
22774;SDS011;11554;51.106;3.684;2023-11-21T15:05:00;4.30;;;2.70;;
22774;SDS011;11554;51.106;3.684;2023-11-21T15:10:00;3.70;;;2.90;;
22774;SDS011;11554;51.106;3.684;2023-11-21T15:15:00;3.70;;;2.90;;
22774;SDS011;11554;51.106;3.684;2023-11-21T15:20:00;4.60;;;3.10;;
22774;SDS011;11554;51.106;3.684;2023-11-21T15:25:00;4.60;;;3.10;;
22774;SDS011;11554;51.106;3.684;2023-11-21T15:30:00;5.30;;;4.50;;
22774;SDS011;11554;51.106;3.684;2023-11-21T15:35:00;5.30;;;4.50;;
22774;SDS011;11554;51.106;3.684;2023-11-21T15:40:00;6.10;;;5.30;;
22774;SDS011;11554;51.106;3.684;2023-11-21T15:45:00;6.10;;;5.30;;
22774;SDS011;11554;51.106;3.684;2023-11-21T15:50:00;5.90;;;5.10;;
22774;SDS011;11554;51.106;3.684;2023-11-21T15:55:00;5.90;;;5.10;;
22774;SDS011;11554;51.106;3.684;2023-11-21T16:00:00;7.30;;;6.30;;
22774;SDS011;11554;51.106;3.684;2023-11-21T16:05:00;7.30;;;6.30;;
22774;SDS011;11554;51.106;3.684;2023-11-21T16:10:00;7.40;;;6.50;;
22774;SDS011;11554;51.106;3.684;2023-11-21T16:15:00;7.40;;;6.50;;
22774;SDS011;11554;51.106;3.684;2023-11-21T16:20:00;7.40;;;5.90;;
22774;SDS011;11554;51.106;3.684;2023-11-21T16:25:00;7.40;;;5.90;;
22774;SDS011;11554;51.106;3.684;2023-11-21T16:30:00;8.30;;;7.30;;
22774;SDS011;11554;51.106;3.684;2023-11-21T16:35:00;8.30;;;7.30;;
22774;SDS011;11554;51.106;3.684;2023-11-21T16:40:00;10.50;;;9.20;;
22774;SDS011;11554;51.106;3.684;2023-11-21T16:45:00;10.50;;;9.20;;
22774;SDS011;11554;51.106;3.684;2023-11-21T16:50:00;12.00;;;10.00;;
22774;SDS011;11554;51.106;3.684;2023-11-21T16:55:00;12.00;;;10.00;;
22774;SDS011;11554;51.106;3.684;2023-11-21T17:00:00;10.80;;;9.50;;
22774;SDS011;11554;51.106;3.684;2023-11-21T17:05:00;10.80;;;9.50;;
22774;SDS011;11554;51.106;3.684;2023-11-21T17:10:00;11.20;;;9.60;;
22774;SDS011;11554;51.106;3.684;2023-11-21T17:15:00;11.20;;;9.60;;
22774;SDS011;11554;51.106;3.684;2023-11-21T17:20:00;11.90;;;9.70;;
22774;SDS011;11554;51.106;3.684;2023-11-21T17:25:00;11.90;;;9.70;;
22774;SDS011;11554;51.106;3.684;2023-11-21T17:30:00;11.60;;;9.30;;
22774;SDS011;11554;51.106;3.684;2023-11-21T17:35:00;11.60;;;9.30;;
22774;SDS011;11554;51.106;3.684;2023-11-21T17:40:00;11.80;;;9.50;;
22774;SDS011;11554;51.106;3.684;2023-11-21T17:45:00;11.80;;;9.50;;
22774;SDS011;11554;51.106;3.684;2023-11-21T17:50:00;13.40;;;9.50;;
22774;SDS011;11554;51.106;3.684;2023-11-21T17:55:00;13.40;;;9.50;;
22774;SDS011;11554;51.106;3.684;2023-11-21T18:00:00;11.10;;;8.40;;
22774;SDS011;11554;51.106;3.684;2023-11-21T18:05:00;11.10;;;8.40;;
22774;SDS011;11554;51.106;3.684;2023-11-21T18:10:00;10.40;;;7.40;;
22774;SDS011;11554;51.106;3.684;2023-11-21T18:15:00;10.40;;;7.40;;
22774;SDS011;11554;51.106;3.684;2023-11-21T18:20:00;8.60;;;6.70;;
22774;SDS011;11554;51.106;3.684;2023-11-21T18:25:00;8.60;;;6.70;;
22774;SDS011;11554;51.106;3.684;2023-11-21T18:30:00;8.20;;;5.40;;
22774;SDS011;11554;51.106;3.684;2023-11-21T18:35:00;8.20;;;5.40;;
22774;SDS011;11554;51.106;3.684;2023-11-21T18:40:00;10.80;;;6.80;;
22774;SDS011;11554;51.106;3.684;2023-11-21T18:45:00;10.80;;;6.80;;
22774;SDS011;11554;51.106;3.684;2023-11-21T18:50:00;12.40;;;7.40;;
22774;SDS011;11554;51.106;3.684;2023-11-21T18:55:00;12.40;;;7.40;;
22774;SDS011;11554;51.106;3.684;2023-11-21T19:00:00;19.20;;;11.00;;
22774;SDS011;11554;51.106;3.684;2023-11-21T19:05:00;19.20;;;11.00;;
22774;SDS011;11554;51.106;3.684;2023-11-21T19:10:00;20.90;;;13.20;;
22774;SDS011;11554;51.106;3.684;2023-11-21T19:15:00;20.90;;;13.20;;
22774;SDS011;11554;51.106;3.684;2023-11-21T19:20:00;21.00;;;13.90;;
22774;SDS011;11554;51.106;3.684;2023-11-21T19:25:00;21.00;;;13.90;;
22774;SDS011;11554;51.106;3.684;2023-11-21T19:30:00;17.60;;;12.10;;
22774;SDS011;11554;51.106;3.684;2023-11-21T19:35:00;17.60;;;12.10;;
22774;SDS011;11554;51.106;3.684;2023-11-21T19:40:00;18.20;;;13.00;;
22774;SDS011;11554;51.106;3.684;2023-11-21T19:45:00;18.20;;;13.00;;
22774;SDS011;11554;51.106;3.684;2023-11-21T19:50:00;16.70;;;11.90;;
22774;SDS011;11554;51.106;3.684;2023-11-21T19:55:00;16.70;;;11.90;;
22774;SDS011;11554;51.106;3.684;2023-11-21T20:00:00;19.60;;;13.70;;
22774;SDS011;11554;51.106;3.684;2023-11-21T20:05:00;19.60;;;13.70;;
22774;SDS011;11554;51.106;3.684;2023-11-21T20:10:00;16.40;;;12.60;;
22774;SDS011;11554;51.106;3.684;2023-11-21T20:15:00;16.40;;;12.60;;
22774;SDS011;11554;51.106;3.684;2023-11-21T20:20:00;15.30;;;12.10;;
22774;SDS011;11554;51.106;3.684;2023-11-21T20:25:00;15.30;;;12.10;;
22774;SDS011;11554;51.106;3.684;2023-11-21T20:30:00;17.50;;;12.20;;
22774;SDS011;11554;51.106;3.684;2023-11-21T20:35:00;17.50;;;12.20;;
22774;SDS011;11554;51.106;3.684;2023-11-21T20:40:01;16.20;;;12.10;;
22774;SDS011;11554;51.106;3.684;2023-11-21T20:45:00;16.20;;;12.10;;
22774;SDS011;11554;51.106;3.684;2023-11-21T20:50:00;16.80;;;12.50;;
22774;SDS011;11554;51.106;3.684;2023-11-21T20:55:00;16.80;;;12.50;;
22774;SDS011;11554;51.106;3.684;2023-11-21T21:00:00;16.30;;;12.70;;
22774;SDS011;11554;51.106;3.684;2023-11-21T21:05:00;16.30;;;12.70;;
22774;SDS011;11554;51.106;3.684;2023-11-21T21:10:00;17.90;;;14.10;;
22774;SDS011;11554;51.106;3.684;2023-11-21T21:15:00;17.90;;;14.10;;
22774;SDS011;11554;51.106;3.684;2023-11-21T21:20:00;19.30;;;14.10;;
22774;SDS011;11554;51.106;3.684;2023-11-21T21:25:00;19.30;;;14.10;;
22774;SDS011;11554;51.106;3.684;2023-11-21T21:30:00;18.70;;;13.50;;
22774;SDS011;11554;51.106;3.684;2023-11-21T21:35:00;18.70;;;13.50;;
22774;SDS011;11554;51.106;3.684;2023-11-21T21:40:00;18.60;;;14.60;;
22774;SDS011;11554;51.106;3.684;2023-11-21T21:45:00;18.60;;;14.60;;
22774;SDS011;11554;51.106;3.684;2023-11-21T21:50:00;19.00;;;13.50;;
22774;SDS011;11554;51.106;3.684;2023-11-21T21:55:00;19.00;;;13.50;;
22774;SDS011;11554;51.106;3.684;2023-11-21T22:00:00;18.20;;;13.30;;
22774;SDS011;11554;51.106;3.684;2023-11-21T22:05:00;18.20;;;13.30;;
22774;SDS011;11554;51.106;3.684;2023-11-21T22:10:00;20.30;;;14.20;;
22774;SDS011;11554;51.106;3.684;2023-11-21T22:15:00;20.30;;;14.20;;
22774;SDS011;11554;51.106;3.684;2023-11-21T22:20:00;26.50;;;17.80;;
22774;SDS011;11554;51.106;3.684;2023-11-21T22:25:00;26.50;;;17.80;;
22774;SDS011;11554;51.106;3.684;2023-11-21T22:30:00;18.00;;;13.10;;
22774;SDS011;11554;51.106;3.684;2023-11-21T22:35:00;18.00;;;13.10;;
22774;SDS011;11554;51.106;3.684;2023-11-21T22:40:00;17.50;;;12.60;;
22774;SDS011;11554;51.106;3.684;2023-11-21T22:45:00;17.50;;;12.60;;
22774;SDS011;11554;51.106;3.684;2023-11-21T22:50:00;17.10;;;12.70;;
22774;SDS011;11554;51.106;3.684;2023-11-21T22:55:00;17.10;;;12.70;;
22774;SDS011;11554;51.106;3.684;2023-11-21T23:00:01;17.20;;;12.10;;
22774;SDS011;11554;51.106;3.684;2023-11-21T23:05:00;17.20;;;12.10;;
22774;SDS011;11554;51.106;3.684;2023-11-21T23:10:00;17.10;;;11.90;;
22774;SDS011;11554;51.106;3.684;2023-11-21T23:15:00;17.10;;;11.90;;
22774;SDS011;11554;51.106;3.684;2023-11-21T23:20:00;17.10;;;11.90;;
22774;SDS011;11554;51.106;3.684;2023-11-21T23:25:00;17.10;;;11.90;;
22774;SDS011;11554;51.106;3.684;2023-11-21T23:30:00;19.30;;;12.30;;
22774;SDS011;11554;51.106;3.684;2023-11-21T23:35:00;19.30;;;12.30;;
22774;SDS011;11554;51.106;3.684;2023-11-21T23:40:00;18.50;;;11.50;;
22774;SDS011;11554;51.106;3.684;2023-11-21T23:45:00;18.50;;;11.50;;
22774;SDS011;11554;51.106;3.684;2023-11-21T23:50:00;17.70;;;11.80;;
22774;SDS011;11554;51.106;3.684;2023-11-21T23:55:00;17.70;;;11.80;;
